Flight Number: AVA6108 Duration: 7:00
Departure: Dubai Intl Airport (OMDB) at 06:30 Distance: 3187 Nm
Arrival: Lagos Airport (DNMM) at 13:30 Equipment: B757-200

Weather Information
Dubai International Airport, United Arab Emirates (OMDB) 25-15N 055-20E 5M Feb 27, 2024 - 12:00 PM EST / 2024.02.27 1700 UTC
Wind: Variable at 5 MPH (4 KT):0
Visibility: greater than 7 mile(s):0 Temperature: 71 F (22 C) Dew Point: 53 F (12 C) Relative Humidity: 53% Pressure (altimeter): 29.94 in. Hg (1014 hPa)
ob: OMDB 271700Z VRB04KT CAVOK 22/12 Q1014 NOSIG cycle: 17
Sunrise: 02:45 Sunset: 14:16 (UTC)

Lagos / Ikeja, Nigeria (DNMM) 06-35N 003-20E 38M Feb 27, 2024 - 12:00 PM EST / 2024.02.27 1700 UTC
Wind: from the S (190 degrees) at 12 MPH (10 KT):0
Visibility: greater than 7 mile(s):0
Sky conditions: mostly clear Temperature: 87 F (31 C) Heat index: 97.5 F (36.4 C):1 Dew Point: 77 F (25 C) Relative Humidity: 70% Pressure (altimeter): 29.77 in. Hg (1008 hPa)
ob: DNMM 271700Z 19010KT 9999 FEW014 31/25 Q1008 NOSIG cycle: 17
Sunrise: 06:02 Sunset: 17:56 (UTC)

TAF:2024/02/27 12:36 TAF TAF DNMM 271100Z 2712/2818 23010KT 8000 BKN014 TEMPO 2714/2720 TS SCT014 FEW020CB PROB30 2716/2720 5000 -TSRA BKN010 FEW019 BECMG 2720/2722 VRB02KT FEW010 TEMPO 2806/2808 4000 BR BECMG 2809/2811 23010KT BKN014 TEMPO 2814/2818 TS SCT014 FEW020CB

Previous Pireps for this route
Date Flightnr Aircraft Flight time Fuel used Landing rate On time
2018-11-30AVA6108B757-20007.2281374-225No
2021-08-25AVA6108B757-20007.3189937-101Yes
2023-08-30AVA6108B757-2007.0747240-218Yes
(pireps marked green are flown by you)

Route map